sensor_id;sensor_type;location;lat;lon;timestamp;P1;durP1;ratioP1;P2;durP2;ratioP2
35919;SDS011;36160;53.370;-6.196;2023-03-14T00:02:25;12.00;;;6.53;;
35919;SDS011;36160;53.370;-6.196;2023-03-14T00:04:53;18.48;;;6.45;;
35919;SDS011;36160;53.370;-6.196;2023-03-14T00:07:20;17.58;;;5.38;;
35919;SDS011;36160;53.370;-6.196;2023-03-14T00:09:46;14.68;;;6.53;;
35919;SDS011;36160;53.370;-6.196;2023-03-14T00:12:11;20.65;;;4.55;;
35919;SDS011;36160;53.370;-6.196;2023-03-14T00:14:39;7.38;;;3.03;;
35919;SDS011;36160;53.370;-6.196;2023-03-14T00:17:07;18.23;;;2.92;;
35919;SDS011;36160;53.370;-6.196;2023-03-14T00:19:33;8.00;;;2.55;;
35919;SDS011;36160;53.370;-6.196;2023-03-14T00:21:58;18.70;;;4.63;;
35919;SDS011;36160;53.370;-6.196;2023-03-14T00:24:24;11.75;;;2.42;;
35919;SDS011;36160;53.370;-6.196;2023-03-14T00:26:50;10.27;;;2.25;;
35919;SDS011;36160;53.370;-6.196;2023-03-14T00:29:16;13.60;;;2.92;;
35919;SDS011;36160;53.370;-6.196;2023-03-14T00:31:41;22.85;;;5.22;;
35919;SDS011;36160;53.370;-6.196;2023-03-14T00:34:07;7.72;;;2.55;;
35919;SDS011;36160;53.370;-6.196;2023-03-14T00:36:32;7.13;;;2.38;;
35919;SDS011;36160;53.370;-6.196;2023-03-14T00:38:58;7.75;;;2.60;;
35919;SDS011;36160;53.370;-6.196;2023-03-14T00:41:24;13.20;;;2.42;;
35919;SDS011;36160;53.370;-6.196;2023-03-14T00:43:50;12.38;;;2.38;;
35919;SDS011;36160;53.370;-6.196;2023-03-14T00:46:16;11.70;;;2.92;;
35919;SDS011;36160;53.370;-6.196;2023-03-14T00:48:43;8.80;;;2.15;;
35919;SDS011;36160;53.370;-6.196;2023-03-14T00:51:11;6.90;;;3.45;;
35919;SDS011;36160;53.370;-6.196;2023-03-14T00:53:39;22.00;;;3.63;;
35919;SDS011;36160;53.370;-6.196;2023-03-14T00:56:06;12.10;;;2.78;;
35919;SDS011;36160;53.370;-6.196;2023-03-14T00:58:33;9.32;;;2.33;;
35919;SDS011;36160;53.370;-6.196;2023-03-14T01:01:04;10.65;;;3.55;;
35919;SDS011;36160;53.370;-6.196;2023-03-14T01:03:31;14.13;;;2.63;;
35919;SDS011;36160;53.370;-6.196;2023-03-14T01:06:06;9.43;;;2.47;;
35919;SDS011;36160;53.370;-6.196;2023-03-14T01:08:35;11.07;;;3.00;;
35919;SDS011;36160;53.370;-6.196;2023-03-14T01:11:05;7.53;;;2.55;;
35919;SDS011;36160;53.370;-6.196;2023-03-14T01:13:34;6.90;;;2.20;;
35919;SDS011;36160;53.370;-6.196;2023-03-14T01:16:01;7.63;;;3.15;;
35919;SDS011;36160;53.370;-6.196;2023-03-14T01:18:30;9.57;;;2.40;;
35919;SDS011;36160;53.370;-6.196;2023-03-14T01:20:56;12.38;;;2.67;;
35919;SDS011;36160;53.370;-6.196;2023-03-14T01:23:21;14.82;;;2.53;;
35919;SDS011;36160;53.370;-6.196;2023-03-14T01:25:47;15.05;;;2.47;;
35919;SDS011;36160;53.370;-6.196;2023-03-14T01:28:13;8.98;;;2.50;;
35919;SDS011;36160;53.370;-6.196;2023-03-14T01:30:38;10.00;;;2.53;;
35919;SDS011;36160;53.370;-6.196;2023-03-14T01:33:04;8.32;;;2.80;;
35919;SDS011;36160;53.370;-6.196;2023-03-14T01:35:30;7.53;;;2.30;;
35919;SDS011;36160;53.370;-6.196;2023-03-14T01:37:55;7.32;;;2.75;;
35919;SDS011;36160;53.370;-6.196;2023-03-14T01:40:21;10.68;;;3.15;;
35919;SDS011;36160;53.370;-6.196;2023-03-14T01:42:54;8.95;;;2.13;;
35919;SDS011;36160;53.370;-6.196;2023-03-14T01:48:41;12.70;;;3.03;;
35919;SDS011;36160;53.370;-6.196;2023-03-14T01:51:14;6.55;;;2.10;;
35919;SDS011;36160;53.370;-6.196;2023-03-14T01:53:46;5.13;;;2.00;;
35919;SDS011;36160;53.370;-6.196;2023-03-14T01:56:14;7.78;;;1.92;;
35919;SDS011;36160;53.370;-6.196;2023-03-14T01:58:42;18.95;;;3.03;;
35919;SDS011;36160;53.370;-6.196;2023-03-14T02:01:13;6.10;;;4.05;;
35919;SDS011;36160;53.370;-6.196;2023-03-14T02:03:56;5.10;;;1.83;;
35919;SDS011;36160;53.370;-6.196;2023-03-14T02:06:27;5.45;;;1.77;;
35919;SDS011;36160;53.370;-6.196;2023-03-14T02:08:59;5.18;;;1.65;;
35919;SDS011;36160;53.370;-6.196;2023-03-14T02:11:26;4.15;;;1.50;;
35919;SDS011;36160;53.370;-6.196;2023-03-14T02:13:54;6.50;;;2.03;;
35919;SDS011;36160;53.370;-6.196;2023-03-14T02:16:21;7.40;;;2.65;;
35919;SDS011;36160;53.370;-6.196;2023-03-14T02:18:47;9.95;;;2.67;;
35919;SDS011;36160;53.370;-6.196;2023-03-14T02:23:51;7.35;;;2.75;;
35919;SDS011;36160;53.370;-6.196;2023-03-14T02:27:10;4.40;;;1.80;;
35919;SDS011;36160;53.370;-6.196;2023-03-14T02:39:16;5.45;;;2.25;;
35919;SDS011;36160;53.370;-6.196;2023-03-14T02:41:48;4.80;;;2.55;;
35919;SDS011;36160;53.370;-6.196;2023-03-14T02:44:14;4.43;;;2.05;;
35919;SDS011;36160;53.370;-6.196;2023-03-14T02:46:40;4.93;;;2.78;;
35919;SDS011;36160;53.370;-6.196;2023-03-14T02:49:10;3.42;;;1.83;;
35919;SDS011;36160;53.370;-6.196;2023-03-14T02:56:30;2.58;;;1.70;;
35919;SDS011;36160;53.370;-6.196;2023-03-14T02:58:56;1.90;;;1.50;;
35919;SDS011;36160;53.370;-6.196;2023-03-14T03:01:22;2.53;;;1.45;;
35919;SDS011;36160;53.370;-6.196;2023-03-14T03:03:48;3.97;;;1.42;;
35919;SDS011;36160;53.370;-6.196;2023-03-14T03:06:14;2.08;;;1.33;;
35919;SDS011;36160;53.370;-6.196;2023-03-14T03:08:40;2.00;;;1.70;;
35919;SDS011;36160;53.370;-6.196;2023-03-14T03:11:06;2.42;;;1.40;;
35919;SDS011;36160;53.370;-6.196;2023-03-14T03:13:32;1.80;;;1.48;;
35919;SDS011;36160;53.370;-6.196;2023-03-14T03:15:58;2.72;;;1.15;;
35919;SDS011;36160;53.370;-6.196;2023-03-14T03:18:24;3.33;;;1.60;;
35919;SDS011;36160;53.370;-6.196;2023-03-14T03:20:49;1.92;;;1.10;;
35919;SDS011;36160;53.370;-6.196;2023-03-14T03:23:15;5.40;;;1.30;;
35919;SDS011;36160;53.370;-6.196;2023-03-14T03:25:41;1.52;;;1.20;;
35919;SDS011;36160;53.370;-6.196;2023-03-14T03:28:07;4.00;;;1.35;;
35919;SDS011;36160;53.370;-6.196;2023-03-14T03:30:39;6.93;;;1.30;;
35919;SDS011;36160;53.370;-6.196;2023-03-14T03:33:06;7.35;;;1.33;;
35919;SDS011;36160;53.370;-6.196;2023-03-14T03:35:33;5.28;;;2.05;;
35919;SDS011;36160;53.370;-6.196;2023-03-14T03:37:59;5.47;;;1.90;;
35919;SDS011;36160;53.370;-6.196;2023-03-14T03:40:25;4.15;;;1.30;;
35919;SDS011;36160;53.370;-6.196;2023-03-14T03:42:51;8.45;;;2.08;;
35919;SDS011;36160;53.370;-6.196;2023-03-14T03:45:16;7.25;;;1.38;;
35919;SDS011;36160;53.370;-6.196;2023-03-14T03:47:42;4.22;;;2.40;;
35919;SDS011;36160;53.370;-6.196;2023-03-14T03:50:08;2.67;;;1.38;;
35919;SDS011;36160;53.370;-6.196;2023-03-14T03:52:34;4.25;;;1.75;;
35919;SDS011;36160;53.370;-6.196;2023-03-14T03:54:59;5.28;;;1.58;;
35919;SDS011;36160;53.370;-6.196;2023-03-14T03:57:25;5.15;;;1.92;;
35919;SDS011;36160;53.370;-6.196;2023-03-14T03:59:51;2.90;;;1.55;;
35919;SDS011;36160;53.370;-6.196;2023-03-14T04:02:16;7.40;;;1.98;;
35919;SDS011;36160;53.370;-6.196;2023-03-14T04:04:42;4.72;;;2.25;;
35919;SDS011;36160;53.370;-6.196;2023-03-14T04:07:08;6.35;;;1.50;;
35919;SDS011;36160;53.370;-6.196;2023-03-14T04:09:34;6.30;;;1.85;;
35919;SDS011;36160;53.370;-6.196;2023-03-14T04:11:59;8.50;;;1.80;;
35919;SDS011;36160;53.370;-6.196;2023-03-14T04:14:25;7.10;;;1.58;;
35919;SDS011;36160;53.370;-6.196;2023-03-14T04:16:51;8.25;;;1.80;;
35919;SDS011;36160;53.370;-6.196;2023-03-14T04:19:17;4.05;;;1.50;;
35919;SDS011;36160;53.370;-6.196;2023-03-14T04:21:42;6.70;;;1.73;;
35919;SDS011;36160;53.370;-6.196;2023-03-14T04:24:11;7.68;;;1.75;;
35919;SDS011;36160;53.370;-6.196;2023-03-14T04:26:38;9.07;;;3.03;;
35919;SDS011;36160;53.370;-6.196;2023-03-14T04:29:03;11.07;;;1.80;;
35919;SDS011;36160;53.370;-6.196;2023-03-14T04:31:29;7.82;;;1.80;;
35919;SDS011;36160;53.370;-6.196;2023-03-14T04:33:55;4.70;;;1.98;;
35919;SDS011;36160;53.370;-6.196;2023-03-14T04:36:20;8.63;;;1.55;;
35919;SDS011;36160;53.370;-6.196;2023-03-14T04:38:46;8.88;;;2.92;;
35919;SDS011;36160;53.370;-6.196;2023-03-14T04:41:11;10.77;;;1.52;;
35919;SDS011;36160;53.370;-6.196;2023-03-14T04:43:37;8.20;;;1.80;;
35919;SDS011;36160;53.370;-6.196;2023-03-14T04:46:03;6.13;;;2.03;;
35919;SDS011;36160;53.370;-6.196;2023-03-14T04:48:29;10.63;;;1.75;;
35919;SDS011;36160;53.370;-6.196;2023-03-14T04:50:54;4.93;;;1.40;;
35919;SDS011;36160;53.370;-6.196;2023-03-14T04:53:20;4.95;;;1.52;;
35919;SDS011;36160;53.370;-6.196;2023-03-14T04:55:53;8.80;;;1.42;;
35919;SDS011;36160;53.370;-6.196;2023-03-14T04:58:20;5.90;;;1.75;;
35919;SDS011;36160;53.370;-6.196;2023-03-14T05:00:47;5.88;;;1.70;;
35919;SDS011;36160;53.370;-6.196;2023-03-14T05:03:16;17.38;;;3.25;;
35919;SDS011;36160;53.370;-6.196;2023-03-14T05:05:43;9.18;;;1.88;;
35919;SDS011;36160;53.370;-6.196;2023-03-14T05:08:09;8.38;;;1.70;;
35919;SDS011;36160;53.370;-6.196;2023-03-14T05:10:35;6.88;;;2.28;;
35919;SDS011;36160;53.370;-6.196;2023-03-14T05:13:01;5.45;;;1.73;;
35919;SDS011;36160;53.370;-6.196;2023-03-14T05:15:27;5.55;;;1.42;;
35919;SDS011;36160;53.370;-6.196;2023-03-14T05:17:52;12.18;;;3.13;;
35919;SDS011;36160;53.370;-6.196;2023-03-14T05:20:19;4.40;;;1.23;;
35919;SDS011;36160;53.370;-6.196;2023-03-14T05:22:45;3.25;;;1.15;;
35919;SDS011;36160;53.370;-6.196;2023-03-14T05:25:11;4.15;;;1.30;;
35919;SDS011;36160;53.370;-6.196;2023-03-14T05:27:37;8.38;;;1.48;;
35919;SDS011;36160;53.370;-6.196;2023-03-14T05:30:03;8.30;;;2.00;;
35919;SDS011;36160;53.370;-6.196;2023-03-14T05:32:30;7.97;;;1.30;;
35919;SDS011;36160;53.370;-6.196;2023-03-14T05:34:55;2.97;;;1.20;;
35919;SDS011;36160;53.370;-6.196;2023-03-14T05:37:24;8.95;;;1.88;;
35919;SDS011;36160;53.370;-6.196;2023-03-14T05:39:50;7.07;;;2.00;;
35919;SDS011;36160;53.370;-6.196;2023-03-14T05:42:16;3.80;;;1.35;;
35919;SDS011;36160;53.370;-6.196;2023-03-14T05:44:41;3.33;;;1.27;;
35919;SDS011;36160;53.370;-6.196;2023-03-14T05:47:07;7.78;;;2.38;;
35919;SDS011;36160;53.370;-6.196;2023-03-14T05:49:32;3.53;;;1.20;;
35919;SDS011;36160;53.370;-6.196;2023-03-14T05:51:58;6.03;;;1.40;;
35919;SDS011;36160;53.370;-6.196;2023-03-14T05:54:24;2.35;;;1.35;;
35919;SDS011;36160;53.370;-6.196;2023-03-14T05:56:49;7.88;;;1.83;;
35919;SDS011;36160;53.370;-6.196;2023-03-14T05:59:15;4.88;;;1.33;;
35919;SDS011;36160;53.370;-6.196;2023-03-14T06:01:41;3.00;;;1.42;;
35919;SDS011;36160;53.370;-6.196;2023-03-14T06:04:06;5.93;;;1.25;;
35919;SDS011;36160;53.370;-6.196;2023-03-14T06:06:32;4.00;;;1.13;;
35919;SDS011;36160;53.370;-6.196;2023-03-14T06:08:58;8.38;;;1.95;;
35919;SDS011;36160;53.370;-6.196;2023-03-14T06:11:23;8.50;;;1.98;;
35919;SDS011;36160;53.370;-6.196;2023-03-14T06:13:49;5.72;;;1.50;;
35919;SDS011;36160;53.370;-6.196;2023-03-14T06:16:16;6.85;;;1.50;;
35919;SDS011;36160;53.370;-6.196;2023-03-14T06:18:41;7.03;;;2.30;;
35919;SDS011;36160;53.370;-6.196;2023-03-14T06:21:07;9.32;;;1.52;;
35919;SDS011;36160;53.370;-6.196;2023-03-14T06:23:33;4.10;;;1.63;;
35919;SDS011;36160;53.370;-6.196;2023-03-14T06:25:59;10.35;;;1.65;;
35919;SDS011;36160;53.370;-6.196;2023-03-14T06:28:25;9.43;;;1.45;;
35919;SDS011;36160;53.370;-6.196;2023-03-14T06:30:51;4.07;;;1.38;;
35919;SDS011;36160;53.370;-6.196;2023-03-14T06:33:17;2.50;;;1.17;;
35919;SDS011;36160;53.370;-6.196;2023-03-14T06:35:43;8.77;;;1.75;;
35919;SDS011;36160;53.370;-6.196;2023-03-14T06:38:08;6.07;;;1.40;;
35919;SDS011;36160;53.370;-6.196;2023-03-14T06:40:34;5.70;;;1.38;;
35919;SDS011;36160;53.370;-6.196;2023-03-14T06:43:00;7.50;;;1.52;;
35919;SDS011;36160;53.370;-6.196;2023-03-14T06:45:25;3.30;;;1.60;;
35919;SDS011;36160;53.370;-6.196;2023-03-14T06:47:51;8.52;;;1.75;;
35919;SDS011;36160;53.370;-6.196;2023-03-14T06:50:17;7.97;;;1.50;;
35919;SDS011;36160;53.370;-6.196;2023-03-14T06:52:42;9.23;;;2.35;;
35919;SDS011;36160;53.370;-6.196;2023-03-14T06:55:13;4.28;;;1.60;;
35919;SDS011;36160;53.370;-6.196;2023-03-14T06:57:40;7.40;;;1.70;;
35919;SDS011;36160;53.370;-6.196;2023-03-14T07:00:06;4.43;;;2.00;;
35919;SDS011;36160;53.370;-6.196;2023-03-14T07:02:33;7.35;;;1.70;;
35919;SDS011;36160;53.370;-6.196;2023-03-14T07:04:59;6.63;;;3.55;;
35919;SDS011;36160;53.370;-6.196;2023-03-14T07:07:25;5.70;;;1.80;;
35919;SDS011;36160;53.370;-6.196;2023-03-14T07:09:52;10.82;;;2.55;;
35919;SDS011;36160;53.370;-6.196;2023-03-14T07:12:17;5.47;;;2.20;;
35919;SDS011;36160;53.370;-6.196;2023-03-14T07:14:43;13.82;;;2.10;;
35919;SDS011;36160;53.370;-6.196;2023-03-14T07:17:09;23.73;;;4.57;;
35919;SDS011;36160;53.370;-6.196;2023-03-14T07:19:35;9.73;;;2.13;;
35919;SDS011;36160;53.370;-6.196;2023-03-14T07:22:01;7.10;;;2.45;;
35919;SDS011;36160;53.370;-6.196;2023-03-14T07:24:26;6.05;;;1.85;;
35919;SDS011;36160;53.370;-6.196;2023-03-14T07:26:52;12.07;;;3.25;;
35919;SDS011;36160;53.370;-6.196;2023-03-14T07:29:18;5.45;;;2.10;;
35919;SDS011;36160;53.370;-6.196;2023-03-14T07:31:43;7.47;;;2.10;;
35919;SDS011;36160;53.370;-6.196;2023-03-14T07:34:09;6.70;;;1.52;;
35919;SDS011;36160;53.370;-6.196;2023-03-14T07:36:35;8.48;;;1.98;;
35919;SDS011;36160;53.370;-6.196;2023-03-14T07:39:00;5.95;;;1.60;;
35919;SDS011;36160;53.370;-6.196;2023-03-14T07:41:26;4.70;;;1.70;;
35919;SDS011;36160;53.370;-6.196;2023-03-14T07:43:52;8.38;;;2.72;;
35919;SDS011;36160;53.370;-6.196;2023-03-14T07:46:17;5.38;;;1.52;;
35919;SDS011;36160;53.370;-6.196;2023-03-14T07:48:43;7.32;;;1.92;;
35919;SDS011;36160;53.370;-6.196;2023-03-14T07:51:09;7.35;;;1.77;;
35919;SDS011;36160;53.370;-6.196;2023-03-14T07:53:35;9.70;;;2.50;;
35919;SDS011;36160;53.370;-6.196;2023-03-14T07:56:00;11.27;;;1.80;;
35919;SDS011;36160;53.370;-6.196;2023-03-14T07:58:27;6.82;;;2.00;;
35919;SDS011;36160;53.370;-6.196;2023-03-14T08:00:53;8.05;;;2.15;;
35919;SDS011;36160;53.370;-6.196;2023-03-14T08:03:19;7.82;;;2.45;;
35919;SDS011;36160;53.370;-6.196;2023-03-14T08:05:47;8.90;;;1.70;;
35919;SDS011;36160;53.370;-6.196;2023-03-14T08:08:14;7.43;;;2.25;;
35919;SDS011;36160;53.370;-6.196;2023-03-14T08:10:39;8.40;;;2.33;;
35919;SDS011;36160;53.370;-6.196;2023-03-14T08:13:05;8.80;;;1.70;;
35919;SDS011;36160;53.370;-6.196;2023-03-14T08:15:31;8.65;;;2.70;;
35919;SDS011;36160;53.370;-6.196;2023-03-14T08:17:57;10.60;;;2.03;;
35919;SDS011;36160;53.370;-6.196;2023-03-14T08:20:24;5.68;;;1.67;;
35919;SDS011;36160;53.370;-6.196;2023-03-14T08:22:52;4.35;;;1.70;;
35919;SDS011;36160;53.370;-6.196;2023-03-14T08:25:20;10.27;;;2.20;;
35919;SDS011;36160;53.370;-6.196;2023-03-14T08:27:45;9.68;;;2.03;;
35919;SDS011;36160;53.370;-6.196;2023-03-14T08:30:12;4.97;;;1.80;;
35919;SDS011;36160;53.370;-6.196;2023-03-14T08:35:15;9.18;;;2.30;;
35919;SDS011;36160;53.370;-6.196;2023-03-14T08:37:41;7.30;;;1.77;;
35919;SDS011;36160;53.370;-6.196;2023-03-14T08:40:07;10.18;;;2.03;;
35919;SDS011;36160;53.370;-6.196;2023-03-14T08:42:35;5.18;;;1.70;;
35919;SDS011;36160;53.370;-6.196;2023-03-14T08:45:01;6.10;;;2.28;;
35919;SDS011;36160;53.370;-6.196;2023-03-14T08:47:27;17.45;;;2.80;;
35919;SDS011;36160;53.370;-6.196;2023-03-14T08:49:53;4.13;;;1.73;;
35919;SDS011;36160;53.370;-6.196;2023-03-14T08:52:18;12.15;;;2.00;;
35919;SDS011;36160;53.370;-6.196;2023-03-14T08:54:44;13.65;;;2.97;;
35919;SDS011;36160;53.370;-6.196;2023-03-14T08:57:10;4.57;;;1.80;;
35919;SDS011;36160;53.370;-6.196;2023-03-14T08:59:35;10.80;;;2.40;;
35919;SDS011;36160;53.370;-6.196;2023-03-14T09:02:01;10.82;;;3.75;;
35919;SDS011;36160;53.370;-6.196;2023-03-14T09:04:31;8.77;;;2.95;;
35919;SDS011;36160;53.370;-6.196;2023-03-14T09:06:58;8.32;;;2.35;;
35919;SDS011;36160;53.370;-6.196;2023-03-14T09:09:25;8.20;;;1.83;;
35919;SDS011;36160;53.370;-6.196;2023-03-14T09:11:55;12.15;;;3.42;;
35919;SDS011;36160;53.370;-6.196;2023-03-14T09:14:21;7.55;;;2.60;;
35919;SDS011;36160;53.370;-6.196;2023-03-14T09:16:47;6.18;;;2.20;;
35919;SDS011;36160;53.370;-6.196;2023-03-14T09:19:13;6.90;;;1.70;;
35919;SDS011;36160;53.370;-6.196;2023-03-14T09:21:38;6.80;;;2.85;;
35919;SDS011;36160;53.370;-6.196;2023-03-14T09:24:04;9.85;;;1.90;;
35919;SDS011;36160;53.370;-6.196;2023-03-14T09:26:30;5.28;;;2.00;;
35919;SDS011;36160;53.370;-6.196;2023-03-14T09:28:56;8.95;;;2.20;;
35919;SDS011;36160;53.370;-6.196;2023-03-14T09:31:22;8.10;;;1.92;;
35919;SDS011;36160;53.370;-6.196;2023-03-14T09:33:48;6.07;;;2.03;;
35919;SDS011;36160;53.370;-6.196;2023-03-14T09:36:13;6.10;;;2.38;;
35919;SDS011;36160;53.370;-6.196;2023-03-14T09:38:39;8.98;;;2.40;;
35919;SDS011;36160;53.370;-6.196;2023-03-14T09:41:15;8.02;;;2.28;;
35919;SDS011;36160;53.370;-6.196;2023-03-14T09:43:56;6.72;;;2.40;;
35919;SDS011;36160;53.370;-6.196;2023-03-14T09:46:24;10.93;;;3.42;;
35919;SDS011;36160;53.370;-6.196;2023-03-14T09:48:50;9.95;;;2.22;;
35919;SDS011;36160;53.370;-6.196;2023-03-14T09:51:17;13.20;;;3.55;;
35919;SDS011;36160;53.370;-6.196;2023-03-14T09:53:47;9.68;;;3.22;;
35919;SDS011;36160;53.370;-6.196;2023-03-14T09:56:23;16.73;;;2.35;;
35919;SDS011;36160;53.370;-6.196;2023-03-14T09:58:53;5.85;;;2.15;;
35919;SDS011;36160;53.370;-6.196;2023-03-14T10:01:23;6.88;;;1.65;;
35919;SDS011;36160;53.370;-6.196;2023-03-14T10:03:54;10.90;;;2.17;;
35919;SDS011;36160;53.370;-6.196;2023-03-14T10:06:23;4.15;;;1.75;;
35919;SDS011;36160;53.370;-6.196;2023-03-14T10:08:52;13.02;;;3.33;;
35919;SDS011;36160;53.370;-6.196;2023-03-14T10:11:19;5.05;;;1.70;;
35919;SDS011;36160;53.370;-6.196;2023-03-14T10:14:05;7.80;;;2.10;;
35919;SDS011;36160;53.370;-6.196;2023-03-14T10:16:34;9.60;;;2.50;;
35919;SDS011;36160;53.370;-6.196;2023-03-14T10:19:04;12.07;;;2.03;;
35919;SDS011;36160;53.370;-6.196;2023-03-14T10:21:35;9.43;;;2.10;;
35919;SDS011;36160;53.370;-6.196;2023-03-14T10:26:53;7.07;;;2.13;;
35919;SDS011;36160;53.370;-6.196;2023-03-14T10:29:23;9.25;;;2.05;;
35919;SDS011;36160;53.370;-6.196;2023-03-14T10:31:53;9.55;;;3.10;;
35919;SDS011;36160;53.370;-6.196;2023-03-14T10:34:41;9.35;;;2.15;;
35919;SDS011;36160;53.370;-6.196;2023-03-14T10:37:17;10.05;;;2.28;;
35919;SDS011;36160;53.370;-6.196;2023-03-14T10:39:48;10.52;;;2.28;;
35919;SDS011;36160;53.370;-6.196;2023-03-14T10:42:24;14.63;;;2.65;;
35919;SDS011;36160;53.370;-6.196;2023-03-14T10:45:04;12.18;;;2.55;;
35919;SDS011;36160;53.370;-6.196;2023-03-14T10:47:48;7.20;;;2.53;;
35919;SDS011;36160;53.370;-6.196;2023-03-14T10:50:25;11.15;;;2.35;;
35919;SDS011;36160;53.370;-6.196;2023-03-14T10:52:54;7.93;;;2.00;;
35919;SDS011;36160;53.370;-6.196;2023-03-14T10:55:20;11.73;;;2.03;;
35919;SDS011;36160;53.370;-6.196;2023-03-14T10:57:48;6.22;;;1.80;;
35919;SDS011;36160;53.370;-6.196;2023-03-14T11:00:15;8.13;;;2.45;;
35919;SDS011;36160;53.370;-6.196;2023-03-14T11:11:06;6.72;;;2.90;;
35919;SDS011;36160;53.370;-6.196;2023-03-14T11:35:43;6.78;;;1.85;;
35919;SDS011;36160;53.370;-6.196;2023-03-14T11:41:00;3.83;;;1.48;;
35919;SDS011;36160;53.370;-6.196;2023-03-14T11:43:33;3.40;;;1.45;;
35919;SDS011;36160;53.370;-6.196;2023-03-14T11:46:16;6.88;;;1.65;;
35919;SDS011;36160;53.370;-6.196;2023-03-14T11:51:50;6.90;;;2.05;;
35919;SDS011;36160;53.370;-6.196;2023-03-14T11:54:41;3.75;;;1.10;;
35919;SDS011;36160;53.370;-6.196;2023-03-14T11:57:18;3.40;;;1.80;;
35919;SDS011;36160;53.370;-6.196;2023-03-14T12:00:02;6.75;;;1.25;;
35919;SDS011;36160;53.370;-6.196;2023-03-14T12:02:51;12.40;;;1.35;;
35919;SDS011;36160;53.370;-6.196;2023-03-14T12:05:42;3.53;;;1.30;;
35919;SDS011;36160;53.370;-6.196;2023-03-14T12:13:41;5.15;;;1.00;;
35919;SDS011;36160;53.370;-6.196;2023-03-14T12:16:30;3.15;;;1.25;;
35919;SDS011;36160;53.370;-6.196;2023-03-14T12:19:21;4.68;;;1.00;;
35919;SDS011;36160;53.370;-6.196;2023-03-14T12:21:57;5.05;;;1.10;;
35919;SDS011;36160;53.370;-6.196;2023-03-14T12:24:24;2.72;;;1.05;;
35919;SDS011;36160;53.370;-6.196;2023-03-14T12:26:57;5.57;;;1.85;;
35919;SDS011;36160;53.370;-6.196;2023-03-14T12:29:25;1.65;;;0.90;;
35919;SDS011;36160;53.370;-6.196;2023-03-14T12:34:30;9.02;;;1.67;;
35919;SDS011;36160;53.370;-6.196;2023-03-14T12:44:48;1.42;;;1.10;;
35919;SDS011;36160;53.370;-6.196;2023-03-14T12:49:47;3.65;;;0.95;;
35919;SDS011;36160;53.370;-6.196;2023-03-14T12:52:16;3.75;;;1.17;;
35919;SDS011;36160;53.370;-6.196;2023-03-14T12:59:58;1.77;;;0.80;;
35919;SDS011;36160;53.370;-6.196;2023-03-14T13:02:29;7.57;;;1.40;;
35919;SDS011;36160;53.370;-6.196;2023-03-14T13:05:03;1.75;;;0.65;;
35919;SDS011;36160;53.370;-6.196;2023-03-14T13:10:18;3.40;;;1.33;;
35919;SDS011;36160;53.370;-6.196;2023-03-14T13:12:53;4.07;;;1.27;;
35919;SDS011;36160;53.370;-6.196;2023-03-14T13:15:40;2.38;;;1.00;;
35919;SDS011;36160;53.370;-6.196;2023-03-14T13:18:11;3.03;;;1.30;;
35919;SDS011;36160;53.370;-6.196;2023-03-14T13:20:50;3.10;;;1.42;;
35919;SDS011;36160;53.370;-6.196;2023-03-14T13:23:26;2.75;;;1.02;;
35919;SDS011;36160;53.370;-6.196;2023-03-14T13:25:53;8.60;;;2.85;;
35919;SDS011;36160;53.370;-6.196;2023-03-14T13:28:19;11.10;;;3.00;;
35919;SDS011;36160;53.370;-6.196;2023-03-14T13:30:47;4.90;;;1.48;;
35919;SDS011;36160;53.370;-6.196;2023-03-14T13:33:15;2.80;;;1.27;;
35919;SDS011;36160;53.370;-6.196;2023-03-14T13:35:46;2.30;;;1.15;;
35919;SDS011;36160;53.370;-6.196;2023-03-14T13:38:31;2.85;;;1.45;;
35919;SDS011;36160;53.370;-6.196;2023-03-14T13:41:00;6.82;;;1.55;;
35919;SDS011;36160;53.370;-6.196;2023-03-14T13:43:31;4.70;;;1.80;;
35919;SDS011;36160;53.370;-6.196;2023-03-14T13:46:03;2.55;;;1.27;;
35919;SDS011;36160;53.370;-6.196;2023-03-14T13:48:56;8.95;;;1.60;;
35919;SDS011;36160;53.370;-6.196;2023-03-14T13:51:25;1.25;;;1.00;;
35919;SDS011;36160;53.370;-6.196;2023-03-14T13:53:56;4.85;;;1.40;;
35919;SDS011;36160;53.370;-6.196;2023-03-14T13:56:26;3.08;;;1.42;;
35919;SDS011;36160;53.370;-6.196;2023-03-14T13:58:54;3.72;;;1.30;;
35919;SDS011;36160;53.370;-6.196;2023-03-14T14:01:24;5.05;;;1.42;;
35919;SDS011;36160;53.370;-6.196;2023-03-14T14:06:39;3.33;;;1.30;;
35919;SDS011;36160;53.370;-6.196;2023-03-14T14:09:18;5.05;;;1.60;;
35919;SDS011;36160;53.370;-6.196;2023-03-14T14:11:52;2.17;;;1.30;;
35919;SDS011;36160;53.370;-6.196;2023-03-14T14:16:48;1.25;;;1.05;;
35919;SDS011;36160;53.370;-6.196;2023-03-14T14:19:15;5.30;;;1.38;;
35919;SDS011;36160;53.370;-6.196;2023-03-14T14:21:43;2.28;;;1.20;;
35919;SDS011;36160;53.370;-6.196;2023-03-14T14:24:13;2.28;;;1.00;;
35919;SDS011;36160;53.370;-6.196;2023-03-14T14:26:40;4.75;;;1.83;;
35919;SDS011;36160;53.370;-6.196;2023-03-14T14:29:23;9.20;;;2.35;;
35919;SDS011;36160;53.370;-6.196;2023-03-14T14:31:58;6.85;;;2.13;;
35919;SDS011;36160;53.370;-6.196;2023-03-14T14:34:26;4.03;;;1.70;;
35919;SDS011;36160;53.370;-6.196;2023-03-14T14:36:52;3.88;;;1.45;;
35919;SDS011;36160;53.370;-6.196;2023-03-14T14:39:25;1.80;;;1.50;;
35919;SDS011;36160;53.370;-6.196;2023-03-14T14:41:53;2.38;;;1.50;;
35919;SDS011;36160;53.370;-6.196;2023-03-14T14:44:29;4.03;;;1.27;;
35919;SDS011;36160;53.370;-6.196;2023-03-14T14:46:58;1.55;;;1.23;;
35919;SDS011;36160;53.370;-6.196;2023-03-14T14:49:28;3.83;;;1.40;;
35919;SDS011;36160;53.370;-6.196;2023-03-14T14:52:00;2.50;;;1.40;;
35919;SDS011;36160;53.370;-6.196;2023-03-14T14:54:45;3.17;;;1.77;;
35919;SDS011;36160;53.370;-6.196;2023-03-14T14:57:17;1.00;;;0.90;;
35919;SDS011;36160;53.370;-6.196;2023-03-14T14:59:49;3.92;;;0.98;;
35919;SDS011;36160;53.370;-6.196;2023-03-14T15:05:00;2.90;;;1.83;;
35919;SDS011;36160;53.370;-6.196;2023-03-14T15:07:26;2.30;;;1.10;;
35919;SDS011;36160;53.370;-6.196;2023-03-14T15:09:51;1.65;;;1.02;;
35919;SDS011;36160;53.370;-6.196;2023-03-14T15:12:17;1.63;;;1.10;;
35919;SDS011;36160;53.370;-6.196;2023-03-14T15:14:43;1.20;;;0.98;;
35919;SDS011;36160;53.370;-6.196;2023-03-14T15:17:10;1.10;;;1.00;;
35919;SDS011;36160;53.370;-6.196;2023-03-14T15:19:36;1.63;;;1.10;;
35919;SDS011;36160;53.370;-6.196;2023-03-14T15:22:04;1.20;;;1.10;;
35919;SDS011;36160;53.370;-6.196;2023-03-14T15:24:36;1.00;;;0.90;;
35919;SDS011;36160;53.370;-6.196;2023-03-14T15:27:02;1.00;;;0.90;;
35919;SDS011;36160;53.370;-6.196;2023-03-14T15:29:28;3.33;;;1.00;;
35919;SDS011;36160;53.370;-6.196;2023-03-14T15:31:53;1.42;;;1.05;;
35919;SDS011;36160;53.370;-6.196;2023-03-14T15:34:19;2.75;;;1.50;;
35919;SDS011;36160;53.370;-6.196;2023-03-14T15:36:45;1.42;;;1.20;;
35919;SDS011;36160;53.370;-6.196;2023-03-14T15:39:10;2.22;;;1.40;;
35919;SDS011;36160;53.370;-6.196;2023-03-14T15:41:37;2.88;;;1.05;;
35919;SDS011;36160;53.370;-6.196;2023-03-14T15:44:02;2.13;;;1.23;;
35919;SDS011;36160;53.370;-6.196;2023-03-14T15:46:28;3.70;;;1.40;;
35919;SDS011;36160;53.370;-6.196;2023-03-14T15:48:54;4.50;;;1.23;;
35919;SDS011;36160;53.370;-6.196;2023-03-14T15:51:19;1.95;;;1.17;;
35919;SDS011;36160;53.370;-6.196;2023-03-14T15:53:45;4.03;;;1.23;;
35919;SDS011;36160;53.370;-6.196;2023-03-14T15:56:12;2.90;;;1.23;;
35919;SDS011;36160;53.370;-6.196;2023-03-14T15:58:41;1.40;;;1.15;;
35919;SDS011;36160;53.370;-6.196;2023-03-14T16:01:07;1.05;;;0.95;;
35919;SDS011;36160;53.370;-6.196;2023-03-14T16:03:36;3.17;;;1.50;;
35919;SDS011;36160;53.370;-6.196;2023-03-14T16:06:02;2.22;;;1.10;;
35919;SDS011;36160;53.370;-6.196;2023-03-14T16:08:28;2.25;;;1.30;;
35919;SDS011;36160;53.370;-6.196;2023-03-14T16:10:54;1.58;;;1.30;;
35919;SDS011;36160;53.370;-6.196;2023-03-14T16:13:22;2.70;;;1.30;;
35919;SDS011;36160;53.370;-6.196;2023-03-14T16:16:00;1.50;;;1.33;;
35919;SDS011;36160;53.370;-6.196;2023-03-14T16:18:28;5.70;;;1.85;;